To NAV CANADA Home Page Login to a new session Search on AWWS site Disclaimer Vers la page française équivalente Tips FAQ What's new on the site To the Forecasts and Observations / NOTAM section To "File a Flight Plan" website Publications and other links Update of the User's profile FIC Telephone Numbers My Weather Data Folder Route Weather Data Regional Weather Data Local Weather Data To the Forecasts and Observations / NOTAM section
Request Generated 11/13/2018 at 18:12:52 UTC . Weather information available at that time is displayed.

METAR/TAF

EKATI/NT    

METAR CYOA 131800Z 15009KT 15SM OVC013 M18/M21 A3019 RMK SC8=
METAR CYOA 131700Z 16008KT 15SM OVC013 M18/M21 A3020 RMK SC8=
SPECI CYOA 131633Z 16009KT 15SM OVC014 M18/M21 A3020 RMK SC8=
METAR CYOA 131600Z 16010KT 15SM OVC015 M18/M21 A3020 RMK SC8=

TAF CYOA 131343Z 1314/1324 VRB03KT P6SM OVC015 TEMPO 1314/1324 3SM
-SN BR OVC007
BECMG 1316/1318 08010KT
RMK NXT FCST BY 131900Z=
Your time UTC time
Weather data provided by Environment Canada and NAV CANADA